Time;durP1;ratioP1;P1;durP2;ratioP2;P2;SDS_P1;SDS_P2;PMS_P1;PMS_P2;Temp;Humidity;BMP_temperature;BMP_pressure;BME280_temperature;BME280_humidity;BME280_pressure;Samples;Min_cycle;Max_cycle;Signal;HPM_P1;HPM_P2
2022/06/23 00:01:16;;;;;;;13.90;7.30;;;;;;;14.93;69.33;97876.55;25078;1316;3052856;-67
2022/06/23 00:03:48;;;;;;;13.40;6.20;;;;;;;14.61;70.69;97876.30;25064;1318;3058352;-68
2022/06/23 00:06:42;;;;;;;13.60;7.80;;;;;;;14.44;71.35;97880.81;25060;1318;3026740;-70
2022/06/23 00:09:39;;;;;;;12.60;5.00;;;;;;;14.24;72.69;97879.88;25056;1318;3052683;-66
2022/06/23 00:12:26;;;;;;;13.30;5.20;;;;;;;14.91;71.10;97870.08;25052;1318;3054727;-69
2022/06/23 00:15:01;;;;;;;6.90;4.70;;;;;;;15.24;69.40;97871.71;24994;1318;3071185;-65
2022/06/23 00:17:42;;;;;;;11.10;6.20;;;;;;;15.10;69.68;97870.23;24949;1318;3049207;-64
2022/06/23 00:20:37;;;;;;;12.90;7.50;;;;;;;14.84;70.33;97870.80;25027;1318;3052868;-70
2022/06/23 00:23:36;;;;;;;12.80;7.50;;;;;;;14.55;71.47;97871.08;25042;1318;3052584;-67
2022/06/23 00:26:19;;;;;;;15.50;8.20;;;;;;;14.47;71.21;97869.41;25063;1318;3058931;-70
2022/06/23 00:28:50;;;;;;;13.70;6.30;;;;;;;14.28;72.39;97867.65;25051;1318;3049843;-64
2022/06/23 00:31:29;;;;;;;10.80;5.60;;;;;;;14.78;71.17;97861.85;25072;1316;3026903;-68
2022/06/23 00:33:59;;;;;;;12.20;7.00;;;;;;;15.17;69.64;97857.98;25044;1318;3050169;-68
2022/06/23 00:36:40;;;;;;;13.10;6.80;;;;;;;15.11;69.83;97861.67;25095;1316;3026600;-67
2022/06/23 00:39:33;;;;;;;10.50;6.40;;;;;;;14.94;69.65;97861.95;25085;1316;3049071;-65
2022/06/23 00:42:03;;;;;;;9.00;6.00;;;;;;;14.68;70.64;97869.10;25058;1318;3054737;-66
2022/06/23 00:44:57;;;;;;;12.60;7.00;;;;;;;14.51;71.30;97867.55;25036;1318;3026149;-69
2022/06/23 00:47:43;;;;;;;10.20;6.60;;;;;;;14.21;72.15;97872.38;25065;1316;3057136;-66
2022/06/23 00:50:18;;;;;;;9.30;5.00;;;;;;;14.20;72.74;97874.44;25052;1318;3052782;-67
2022/06/23 00:52:56;;;;;;;9.20;4.80;;;;;;;14.80;71.42;97873.43;25025;1317;3056276;-65
2022/06/23 00:55:35;;;;;;;6.70;4.40;;;;;;;15.06;70.13;97875.73;25079;1318;3051723;-65
2022/06/23 00:58:17;;;;;;;6.50;4.40;;;;;;;15.03;70.16;97875.14;24692;1316;3521178;-67
2022/06/23 01:00:49;;;;;;;7.30;4.20;;;;;;;14.96;69.96;97878.55;24963;1316;3051985;-65
2022/06/23 01:03:24;;;;;;;7.90;4.90;;;;;;;14.69;70.85;97886.42;25001;1318;3026299;-66
2022/06/23 01:05:59;;;;;;;12.10;5.80;;;;;;;14.39;71.68;97885.35;25086;1318;3052611;-66
2022/06/23 01:08:50;;;;;;;8.40;5.50;;;;;;;14.21;72.18;97891.74;25036;1318;3058823;-66
2022/06/23 01:11:45;;;;;;;3.80;3.20;;;;;;;14.00;73.68;97891.06;25023;1318;3051330;-65
2022/06/23 01:14:29;;;;;;;5.30;3.70;;;;;;;14.83;71.20;97881.45;25027;1318;3053630;-67
2022/06/23 01:17:21;;;;;;;6.10;4.50;;;;;;;15.09;70.01;97883.54;25039;1318;3052019;-65
2022/06/23 01:19:56;;;;;;;9.30;4.10;;;;;;;14.95;70.37;97883.90;25029;1318;3071269;-68
2022/06/23 01:22:49;;;;;;;7.10;4.60;;;;;;;14.69;71.14;97882.67;25046;1318;3051395;-68
2022/06/23 01:25:21;;;;;;;10.00;4.50;;;;;;;14.50;71.82;97891.27;25023;1318;3054780;-65
2022/06/23 01:28:08;;;;;;;5.40;4.00;;;;;;;14.35;71.86;97896.13;25013;1316;3026457;-66
2022/06/23 01:30:47;;;;;;;7.10;5.50;;;;;;;14.23;72.74;97902.30;25073;1318;3057597;-69
2022/06/23 01:33:34;;;;;;;12.40;6.10;;;;;;;14.85;71.34;97891.45;25061;1318;3052350;-67
2022/06/23 01:36:21;;;;;;;8.90;6.90;;;;;;;15.24;69.95;97894.83;25045;1317;3055916;-69
2022/06/23 01:39:28;;;;;;;10.40;8.30;;;;;;;15.21;69.61;97897.60;24945;1317;3054497;-68
2022/06/23 01:42:23;;;;;;;8.10;7.10;;;;;;;14.48;72.37;97908.08;24966;1318;3071628;-67
2022/06/23 01:45:08;;;;;;;8.80;7.00;;;;;;;14.46;72.42;97901.90;24960;1318;3051872;-66
2022/06/23 01:47:46;;;;;;;10.30;6.70;;;;;;;14.35;72.09;97904.08;25040;1317;3052320;-66
2022/06/23 01:50:25;;;;;;;5.40;4.90;;;;;;;14.24;72.68;97907.26;25038;1318;3055165;-66
2022/06/23 01:53:13;;;;;;;5.80;4.70;;;;;;;14.71;71.86;97907.03;25074;1318;3059355;-69
2022/06/23 01:55:53;;;;;;;6.40;5.40;;;;;;;15.18;70.39;97907.46;25014;1318;3052620;-65
2022/06/23 01:58:23;;;;;;;7.70;6.60;;;;;;;15.20;69.98;97908.81;25064;1318;3055439;-66
2022/06/23 02:00:53;;;;;;;8.40;6.60;;;;;;;14.94;70.45;97910.11;25075;1318;3026547;-71
2022/06/23 02:03:27;;;;;;;9.40;6.70;;;;;;;14.78;70.79;97904.84;25037;1318;3026281;-67
2022/06/23 02:06:04;;;;;;;7.40;6.20;;;;;;;14.34;72.43;97917.02;25022;1318;3028278;-67
2022/06/23 02:08:52;;;;;;;9.40;7.50;;;;;;;14.25;72.79;97912.27;25051;1318;3054960;-65
2022/06/23 02:11:34;;;;;;;6.00;4.70;;;;;;;14.12;73.45;97916.11;25067;1318;3055244;-63
2022/06/23 02:14:26;;;;;;;5.50;4.90;;;;;;;14.77;71.88;97914.88;25065;1318;3060033;-64
2022/06/23 02:17:16;;;;;;;10.30;5.30;;;;;;;14.99;70.67;97910.52;25054;1318;3053282;-63
2022/06/23 02:19:56;;;;;;;7.80;6.20;;;;;;;14.98;70.68;97903.05;25078;1317;3053050;-67
2022/06/23 02:22:42;;;;;;;7.00;5.50;;;;;;;14.86;70.91;97904.06;25086;1318;3050619;-66
2022/06/23 02:25:30;;;;;;;6.50;5.80;;;;;;;14.77;70.90;97911.16;25047;1318;3071171;-66
2022/06/23 02:28:03;;;;;;;8.50;7.60;;;;;;;14.71;71.13;97915.66;25082;1318;3049453;-69
2022/06/23 02:30:45;;;;;;;9.10;8.10;;;;;;;14.62;71.40;97916.16;25040;1318;3027722;-67
2022/06/23 02:33:30;;;;;;;6.60;6.00;;;;;;;14.53;71.71;97919.13;25024;1318;3053343;-65
2022/06/23 02:36:28;;;;;;;6.40;5.80;;;;;;;15.23;70.08;97916.63;25022;1318;3057764;-65
2022/06/23 02:38:59;;;;;;;8.00;7.20;;;;;;;15.64;68.27;97917.05;25001;1318;3052516;-64
2022/06/23 02:41:55;;;;;;;8.10;7.30;;;;;;;15.53;68.38;97920.75;25081;1318;3027127;-67
2022/06/23 02:44:52;;;;;;;6.50;5.90;;;;;;;15.16;69.07;97926.17;25055;1316;3051407;-67
2022/06/23 02:48:00;;;;;;;7.60;6.70;;;;;;;14.74;70.93;97930.85;25107;1318;3069382;-63
2022/06/23 02:51:10;;;;;;;5.90;5.20;;;;;;;14.26;72.09;97934.77;24988;1318;3052184;-64
2022/06/23 02:53:47;;;;;;;5.40;4.90;;;;;;;14.00;73.35;97932.19;25077;1318;3054820;-68
2022/06/23 02:57:08;;;;;;;6.50;4.00;;;;;;;14.11;73.33;97931.62;25009;1318;3055075;-66
2022/06/23 02:59:47;;;;;;;4.20;3.60;;;;;;;15.08;70.80;97929.47;25021;1314;3059212;-64
2022/06/23 03:02:32;;;;;;;6.30;3.80;;;;;;;15.58;68.63;97928.69;24991;1315;3051810;-65
2022/06/23 03:05:23;;;;;;;10.60;4.20;;;;;;;15.54;68.21;97926.42;25078;1314;3053012;-68
2022/06/23 03:08:00;;;;;;;8.20;4.50;;;;;;;15.31;68.81;97931.70;24997;1318;3050919;-67
2022/06/23 03:10:33;;;;;;;6.50;4.80;;;;;;;15.20;69.47;97926.70;25029;1315;3071036;-64
2022/06/23 03:13:24;;;;;;;5.90;5.30;;;;;;;15.01;70.24;97929.16;25044;1314;3026646;-68
2022/06/23 03:16:07;;;;;;;6.50;5.70;;;;;;;14.91;70.32;97936.38;25065;1314;3055304;-64
2022/06/23 03:18:59;;;;;;;4.10;3.70;;;;;;;14.83;70.66;97938.95;25061;1315;3054668;-67
2022/06/23 03:21:50;;;;;;;4.30;3.70;;;;;;;15.52;69.05;97936.59;25032;1314;3056005;-67
2022/06/23 03:24:25;;;;;;;5.70;4.40;;;;;;;15.85;67.33;97940.10;25055;1317;3050305;-66
2022/06/23 03:27:16;;;;;;;5.00;4.40;;;;;;;15.78;67.72;97948.65;25029;1312;3053579;-64
2022/06/23 03:29:58;;;;;;;6.60;4.20;;;;;;;15.63;68.14;97950.70;25021;1314;3054085;-67
2022/06/23 03:32:34;;;;;;;6.80;4.50;;;;;;;15.46;68.58;97951.27;25069;1314;3070147;-63
2022/06/23 03:35:27;;;;;;;5.80;5.10;;;;;;;15.25;69.51;97956.30;25037;1314;3051536;-65
2022/06/23 03:37:59;;;;;;;5.50;4.80;;;;;;;14.89;70.59;97960.85;25098;1314;3052813;-67
2022/06/23 03:43:19;;;;;;;3.50;3.20;;;;;;;14.57;71.50;97962.17;25055;1314;3058552;-66
2022/06/23 03:45:56;;;;;;;7.30;4.00;;;;;;;15.14;70.28;97961.00;25017;1314;3051314;-67
2022/06/23 03:48:41;;;;;;;8.40;4.80;;;;;;;15.50;68.74;97961.79;25083;1314;3052797;-66
2022/06/23 03:51:18;;;;;;;8.00;4.60;;;;;;;15.34;69.00;97963.13;25043;1314;3051359;-64
2022/06/23 03:54:17;;;;;;;6.10;5.40;;;;;;;15.09;69.87;97968.32;25048;1314;3071338;-66
2022/06/23 03:56:57;;;;;;;6.30;5.00;;;;;;;14.61;71.43;97972.60;25014;1314;3051032;-66
2022/06/23 03:59:28;;;;;;;5.50;4.70;;;;;;;14.57;71.62;97978.46;25068;1315;3052190;-63
2022/06/23 04:02:01;;;;;;;8.20;4.70;;;;;;;14.54;71.18;97973.01;25089;1314;3026725;-68
2022/06/23 04:04:54;;;;;;;5.70;5.10;;;;;;;14.46;71.57;97978.72;25014;1317;3057985;-68
2022/06/23 04:07:29;;;;;;;6.20;4.10;;;;;;;14.53;71.96;97980.67;25056;1315;3051558;-68
2022/06/23 04:10:00;;;;;;;6.30;4.10;;;;;;;15.27;70.31;97972.83;25019;1314;3055371;-67
2022/06/23 04:12:29;;;;;;;7.00;5.10;;;;;;;15.68;68.52;97969.27;25101;1314;3026428;-66
2022/06/23 04:15:08;;;;;;;5.30;4.10;;;;;;;15.63;67.86;97975.06;25008;1314;3026705;-65
2022/06/23 04:17:43;;;;;;;5.10;4.20;;;;;;;15.47;67.59;97979.20;25030;1314;3056280;-65
2022/06/23 04:20:33;;;;;;;4.80;4.30;;;;;;;15.36;68.00;97988.43;25037;1315;3054167;-64
2022/06/23 04:23:12;;;;;;;9.30;5.00;;;;;;;15.15;68.96;97991.53;25019;1315;3070879;-64
2022/06/23 04:25:51;;;;;;;5.50;4.80;;;;;;;14.88;69.63;97998.15;24995;1318;3051416;-71
2022/06/23 04:28:25;;;;;;;5.60;4.30;;;;;;;14.79;70.09;97997.34;25048;1314;3053231;-67
2022/06/23 04:30:56;;;;;;;4.80;3.40;;;;;;;14.83;69.62;97996.26;24985;1315;3052694;-66
2022/06/23 04:33:26;;;;;;;6.40;3.50;;;;;;;15.39;68.52;97996.65;25042;1314;3026841;-66
2022/06/23 04:35:58;;;;;;;5.80;3.80;;;;;;;15.82;67.16;98000.14;25015;1314;3026771;-65
2022/06/23 04:38:27;;;;;;;5.40;4.30;;;;;;;15.75;66.81;98002.94;25017;1314;3027207;-66
2022/06/23 04:41:41;;;;;;;5.00;4.50;;;;;;;15.51;67.76;98009.69;24986;1314;3026924;-66
2022/06/23 04:44:20;;;;;;;6.30;5.10;;;;;;;15.15;68.59;98013.09;24992;1315;3048334;-67
2022/06/23 04:46:52;;;;;;;8.80;4.60;;;;;;;14.72;70.54;98020.76;25040;1314;3055197;-69
2022/06/23 04:49:28;;;;;;;8.00;5.00;;;;;;;14.59;71.36;98022.23;25049;1314;3026088;-68
2022/06/23 04:52:16;;;;;;;4.10;3.70;;;;;;;14.60;71.40;98029.84;25076;1314;3070571;-64
2022/06/23 04:55:11;;;;;;;5.00;4.00;;;;;;;15.31;69.78;98025.05;25007;1315;3048567;-65
2022/06/23 04:57:49;;;;;;;6.90;4.30;;;;;;;15.68;67.89;98022.72;24985;1315;3054829;-68
2022/06/23 05:00:30;;;;;;;7.50;4.60;;;;;;;15.50;68.18;98029.84;25002;1315;3054801;-68
2022/06/23 05:03:02;;;;;;;9.70;4.90;;;;;;;15.33;68.60;98031.49;25027;1315;3056618;-67
2022/06/23 05:05:33;;;;;;;7.30;5.40;;;;;;;15.22;68.43;98035.23;25105;1314;3026751;-66
2022/06/23 05:08:12;;;;;;;6.50;4.90;;;;;;;15.09;69.03;98036.20;25076;1314;3026573;-67
2022/06/23 05:10:54;;;;;;;9.10;4.50;;;;;;;15.05;69.65;98042.80;25029;1314;3054073;-67
2022/06/23 05:13:25;;;;;;;6.30;4.80;;;;;;;15.09;69.17;98043.11;25094;1314;3070488;-64
2022/06/23 05:16:00;;;;;;;3.80;3.10;;;;;;;15.10;69.10;98046.35;25000;1314;3026575;-64
2022/06/23 05:18:31;;;;;;;6.00;2.70;;;;;;;15.84;66.34;98042.84;25011;1314;3054456;-69
2022/06/23 05:21:17;;;;;;;3.40;3.10;;;;;;;16.54;63.40;98037.58;25016;1314;3028351;-67
2022/06/23 05:24:01;;;;;;;11.20;3.10;;;;;;;16.64;62.54;98033.98;25012;1315;3059287;-68
2022/06/23 05:26:36;;;;;;;6.00;3.60;;;;;;;16.58;62.34;98031.60;25115;1314;3052565;-68
2022/06/23 05:29:12;;;;;;;3.40;3.10;;;;;;;16.30;63.12;98036.54;25095;1316;3053365;-64
2022/06/23 05:31:41;;;;;;;8.00;3.50;;;;;;;16.30;63.29;98036.71;25136;1314;3055847;-66
2022/06/23 05:34:17;;;;;;;4.80;3.30;;;;;;;16.35;62.97;98038.92;25040;1317;3026513;-68
2022/06/23 05:37:03;;;;;;;6.50;4.20;;;;;;;16.41;62.87;98040.71;25021;1315;3055163;-68
2022/06/23 05:39:48;;;;;;;6.80;4.10;;;;;;;16.33;63.48;98046.18;25029;1314;3054506;-66
2022/06/23 05:42:28;;;;;;;8.50;3.70;;;;;;;16.34;63.65;98044.99;25052;1315;3069154;-71
2022/06/23 05:45:04;;;;;;;4.40;4.00;;;;;;;16.55;63.04;98040.02;25083;1314;3049354;-65
2022/06/23 05:47:34;;;;;;;6.10;3.90;;;;;;;16.70;62.53;98040.55;25078;1314;3053112;-69
2022/06/23 05:50:05;;;;;;;6.60;4.70;;;;;;;16.83;62.30;98039.04;25025;1315;3026199;-69
2022/06/23 05:52:49;;;;;;;8.50;4.50;;;;;;;16.87;62.10;98039.41;25020;1315;3028324;-70
2022/06/23 05:55:32;;;;;;;10.70;4.90;;;;;;;16.92;61.64;98033.60;25017;1314;3051617;-68
2022/06/23 05:58:19;;;;;;;6.00;5.10;;;;;;;17.10;60.90;98031.53;25097;1314;3052737;-64
2022/06/23 06:01:11;;;;;;;9.00;5.70;;;;;;;17.18;60.62;98038.08;25131;1314;3054394;-66
2022/06/23 06:04:03;;;;;;;9.60;5.20;;;;;;;17.11;60.69;98038.42;25133;1314;3072299;-69
2022/06/23 06:06:32;;;;;;;11.00;6.20;;;;;;;17.14;60.64;98037.41;25130;1314;3048901;-67
2022/06/23 06:11:52;;;;;;;8.40;6.30;;;;;;;17.05;60.46;98041.55;25110;1315;3071281;-66
2022/06/23 06:14:26;;;;;;;7.30;5.50;;;;;;;17.05;60.39;98048.61;25104;1315;3026474;-65
2022/06/23 06:16:57;;;;;;;6.40;5.50;;;;;;;17.19;60.00;98047.60;25143;1314;3051752;-67
2022/06/23 06:19:26;;;;;;;8.80;6.00;;;;;;;17.32;59.35;98043.90;25121;1315;3029068;-68
2022/06/23 06:21:57;;;;;;;11.90;7.20;;;;;;;17.33;59.03;98047.91;25073;1315;3027492;-66
2022/06/23 06:24:32;;;;;;;10.30;7.00;;;;;;;17.19;59.30;98047.25;25041;1315;3026453;-66
2022/06/23 06:27:01;;;;;;;9.90;7.90;;;;;;;17.06;59.94;98051.89;25018;1314;3052711;-69
2022/06/23 06:29:32;;;;;;;11.30;6.60;;;;;;;17.06;59.79;98048.84;25044;1314;3028750;-69
2022/06/23 06:32:28;;;;;;;9.90;7.20;;;;;;;17.22;59.21;98048.51;25060;1314;3026501;-68
2022/06/23 06:35:36;;;;;;;9.50;6.00;;;;;;;17.21;58.69;98050.61;25003;1314;3051385;-65
2022/06/23 06:38:08;;;;;;;8.90;5.80;;;;;;;17.27;58.34;98052.21;25001;1314;3055406;-71
2022/06/23 06:40:37;;;;;;;8.00;5.90;;;;;;;17.21;58.41;98058.40;25136;1314;3028253;-67
2022/06/23 06:43:11;;;;;;;12.80;6.60;;;;;;;17.38;58.59;98060.07;25018;1313;3029296;-67
2022/06/23 06:45:40;;;;;;;11.40;6.90;;;;;;;17.37;58.81;98060.18;25121;1314;3026644;-66
2022/06/23 06:48:30;;;;;;;10.20;6.90;;;;;;;17.51;58.53;98064.48;25080;1314;3026849;-68
2022/06/23 06:51:12;;;;;;;12.90;8.20;;;;;;;17.61;58.22;98061.45;25080;1315;3059238;-73
2022/06/23 06:53:43;;;;;;;10.80;5.70;;;;;;;17.66;58.40;98058.37;25055;1314;3049980;-70
2022/06/23 06:56:26;;;;;;;9.30;6.60;;;;;;;17.80;58.12;98057.17;25019;1314;3026618;-70
2022/06/23 06:59:00;;;;;;;13.60;7.60;;;;;;;17.90;57.78;98059.95;25080;1315;3051689;-71
2022/06/23 07:01:30;;;;;;;11.60;8.50;;;;;;;18.07;57.13;98055.93;25035;1315;3070994;-71
2022/06/23 07:04:00;;;;;;;12.50;7.20;;;;;;;18.01;57.31;98061.55;25100;1314;3026177;-65
2022/06/23 07:06:40;;;;;;;12.70;8.00;;;;;;;18.07;56.82;98061.38;25068;1314;3026867;-67
2022/06/23 07:09:17;;;;;;;12.00;8.00;;;;;;;18.05;56.64;98062.52;25053;1315;3071083;-67
2022/06/23 07:12:00;;;;;;;8.70;5.20;;;;;;;18.11;56.74;98069.42;25072;1314;3049548;-69
2022/06/23 07:15:06;;;;;;;6.00;4.20;;;;;;;18.31;56.39;98073.70;25131;1314;3055389;-66
2022/06/23 07:17:40;;;;;;;8.10;4.20;;;;;;;18.48;55.76;98080.48;25053;1315;3055006;-68
2022/06/23 07:20:17;;;;;;;9.50;4.80;;;;;;;18.51;55.50;98077.14;25093;1315;3054437;-66
2022/06/23 07:22:58;;;;;;;8.30;4.70;;;;;;;18.41;54.82;98075.38;25069;1315;3049797;-72
2022/06/23 07:25:39;;;;;;;9.10;4.70;;;;;;;18.40;54.46;98074.28;25117;1314;3053499;-65
2022/06/23 07:28:13;;;;;;;8.50;5.20;;;;;;;18.40;54.86;98073.95;25061;1314;3054433;-71
2022/06/23 07:30:44;;;;;;;12.50;6.00;;;;;;;18.31;55.28;98081.20;25012;1314;3067318;-68
2022/06/23 07:33:25;;;;;;;6.80;4.50;;;;;;;18.40;54.88;98082.02;25128;1314;3026790;-69
2022/06/23 07:35:57;;;;;;;6.60;4.10;;;;;;;18.45;54.20;98080.74;25088;1314;3054918;-68
2022/06/23 07:38:59;;;;;;;6.50;4.00;;;;;;;18.57;53.96;98079.91;25110;1314;3026327;-68
2022/06/23 07:41:57;;;;;;;5.70;3.50;;;;;;;18.56;52.61;98081.97;25087;1314;3059260;-72
2022/06/23 07:44:45;;;;;;;9.20;3.50;;;;;;;18.71;52.35;98086.35;25075;1315;3051571;-70
2022/06/23 07:47:16;;;;;;;7.50;3.30;;;;;;;18.87;52.39;98091.39;25131;1314;3052756;-71
2022/06/23 07:49:45;;;;;;;8.70;5.30;;;;;;;18.98;51.86;98094.89;25156;1314;3030588;-68
2022/06/23 07:52:15;;;;;;;7.10;5.10;;;;;;;19.04;52.27;98104.23;25105;1314;3026592;-67
2022/06/23 07:54:44;;;;;;;11.20;5.70;;;;;;;19.05;52.64;98110.59;25003;1314;3055111;-69
2022/06/23 07:57:13;;;;;;;8.80;4.60;;;;;;;18.96;52.50;98113.96;25065;1314;3026248;-70
2022/06/23 07:59:51;;;;;;;8.60;3.20;;;;;;;18.89;51.49;98125.02;25118;1314;3048624;-69
2022/06/23 08:02:31;;;;;;;7.00;2.90;;;;;;;18.95;51.32;98124.69;25081;1314;3052529;-66
2022/06/23 08:05:05;;;;;;;5.60;2.80;;;;;;;18.95;51.18;98125.74;24987;1314;3052546;-66
2022/06/23 08:07:35;;;;;;;8.70;2.90;;;;;;;18.82;51.07;98135.04;25102;1314;3071374;-66
2022/06/23 08:10:11;;;;;;;8.50;3.40;;;;;;;18.80;51.20;98138.36;25046;1315;3026442;-73
2022/06/23 08:12:58;;;;;;;7.20;3.70;;;;;;;19.01;50.77;98136.91;25061;1314;3052332;-69
2022/06/23 08:18:45;;;;;;;9.30;5.00;;;;;;;19.02;49.60;98140.64;25066;1314;3058970;-66
2022/06/23 08:21:16;;;;;;;7.90;3.60;;;;;;;18.99;49.69;98145.20;25139;1315;3052068;-70
2022/06/23 08:24:00;;;;;;;9.40;3.90;;;;;;;18.98;49.01;98149.00;25040;1314;3026464;-68
2022/06/23 08:26:29;;;;;;;8.20;4.00;;;;;;;19.18;49.34;98148.64;25023;1318;3051208;-72
2022/06/23 08:29:01;;;;;;;8.50;2.60;;;;;;;19.51;48.51;98148.11;25083;1316;3026992;-68
2022/06/23 08:31:30;;;;;;;4.10;1.90;;;;;;;19.63;47.94;98155.38;25085;1314;3052951;-70
2022/06/23 08:33:59;;;;;;;3.30;1.60;;;;;;;19.56;48.10;98161.02;25013;1317;3026594;-67
2022/06/23 08:36:39;;;;;;;5.60;1.50;;;;;;;19.59;47.60;98164.45;25068;1314;3051351;-67
2022/06/23 08:39:15;;;;;;;7.80;1.60;;;;;;;19.58;47.63;98164.14;25070;1314;3051850;-65
2022/06/23 08:42:17;;;;;;;3.40;1.50;;;;;;;19.77;47.77;98165.63;25058;1314;3054287;-67
2022/06/23 08:45:15;;;;;;;8.40;1.50;;;;;;;20.07;46.96;98169.19;25034;1314;3071174;-68
2022/06/23 08:47:52;;;;;;;4.50;1.40;;;;;;;20.35;46.75;98168.66;25147;1315;3051902;-70
2022/06/23 08:50:53;;;;;;;2.40;1.60;;;;;;;20.44;46.89;98170.23;25068;1317;3052171;-66
2022/06/23 08:53:29;;;;;;;1.80;1.20;;;;;;;20.67;46.58;98172.13;25386;1314;3052759;-71
2022/06/23 08:56:28;;;;;;;3.30;1.40;;;;;;;21.03;45.26;98168.23;25011;1315;3056593;-66
2022/06/23 08:59:19;;;;;;;2.00;1.30;;;;;;;21.19;45.03;98165.84;25132;1314;3052749;-67
2022/06/23 09:02:05;;;;;;;2.60;1.20;;;;;;;21.27;45.21;98170.35;25060;1315;3055374;-65
2022/06/23 09:05:05;;;;;;;4.60;1.20;;;;;;;21.43;44.25;98168.53;25043;1315;3051711;-67
2022/06/23 09:07:40;;;;;;;4.80;0.90;;;;;;;21.73;42.99;98170.15;25081;1314;3071539;-67
2022/06/23 09:10:31;;;;;;;3.70;1.10;;;;;;;21.81;42.78;98168.09;25066;1316;3051968;-67
2022/06/23 09:13:19;;;;;;;1.70;0.90;;;;;;;21.96;42.87;98173.55;25093;1314;3054879;-68
2022/06/23 09:16:00;;;;;;;2.20;1.10;;;;;;;22.17;42.19;98175.75;25086;1314;3051401;-67
2022/06/23 09:19:06;;;;;;;2.30;1.30;;;;;;;22.18;42.25;98181.14;25070;1314;3058527;-65
2022/06/23 09:21:58;;;;;;;9.00;2.10;;;;;;;22.38;41.93;98190.69;24941;1316;3050223;-66
2022/06/23 09:24:42;;;;;;;10.50;1.60;;;;;;;22.42;41.84;98187.00;25149;1315;3052203;-69
2022/06/23 09:27:30;;;;;;;;;;;;;;;22.61;41.09;98184.17;24999;1314;3051856;-65
2022/06/23 09:30:09;;;;;;;2.50;0.80;;;;;;;22.66;40.13;98186.94;24960;1316;3071300;-68
2022/06/23 09:32:57;;;;;;;2.40;0.80;;;;;;;22.74;39.74;98184.24;25057;1315;3049705;-61
2022/06/23 09:35:53;;;;;;;1.70;0.90;;;;;;;22.92;39.40;98174.50;25064;1314;3054689;-71
2022/06/23 09:38:38;;;;;;;2.10;1.10;;;;;;;23.04;39.52;98162.40;25108;1314;3053657;-68
2022/06/23 09:41:45;;;;;;;2.40;1.30;;;;;;;23.19;39.64;98157.95;25142;1315;3058893;-68
2022/06/23 09:44:29;;;;;;;5.90;1.00;;;;;;;23.42;38.41;98163.45;25164;1315;3049370;-70
2022/06/23 09:47:02;;;;;;;10.40;1.20;;;;;;;23.57;37.26;98165.16;25089;1315;3055793;-65
2022/06/23 09:49:54;;;;;;;1.30;0.80;;;;;;;23.70;37.61;98174.61;25131;1314;3054490;-65
2022/06/23 09:52:29;;;;;;;3.10;1.00;;;;;;;23.70;36.71;98172.94;24992;1314;3072163;-71
2022/06/23 09:55:06;;;;;;;3.30;1.00;;;;;;;23.62;36.82;98176.08;25123;1314;3049300;-67
2022/06/23 09:57:54;;;;;;;3.50;1.00;;;;;;;23.62;36.90;98176.15;25090;1315;3052408;-66
2022/06/23 10:00:38;;;;;;;1.00;0.80;;;;;;;23.75;36.79;98178.86;25160;1314;3055366;-68
2022/06/23 10:03:31;;;;;;;3.60;0.90;;;;;;;23.72;37.26;98178.45;25057;1317;3059500;-68
2022/06/23 10:06:17;;;;;;;2.10;1.10;;;;;;;23.43;37.67;98186.83;25066;1316;3049578;-65
2022/06/23 10:08:56;;;;;;;4.90;1.00;;;;;;;23.55;37.01;98185.86;25170;1315;3055374;-67
2022/06/23 10:11:45;;;;;;;2.90;1.00;;;;;;;23.53;36.46;98185.16;25087;1316;3053870;-71
2022/06/23 10:14:29;;;;;;;1.90;1.20;;;;;;;23.54;36.94;98188.30;25039;1317;3068894;-65
2022/06/23 10:17:01;;;;;;;4.50;1.50;;;;;;;23.74;36.63;98194.13;25083;1315;3052411;-67
2022/06/23 10:19:42;;;;;;;5.10;1.80;;;;;;;23.95;36.61;98198.11;25027;1315;3026257;-68
2022/06/23 10:22:40;;;;;;;4.70;1.60;;;;;;;24.15;36.41;98201.67;25007;1314;3055688;-65
2022/06/23 10:25:31;;;;;;;5.60;1.10;;;;;;;24.41;36.23;98201.44;24975;1316;3056599;-70
2022/06/23 10:28:12;;;;;;;3.20;1.00;;;;;;;24.51;35.60;98201.19;25054;1314;3050328;-65
2022/06/23 10:31:22;;;;;;;4.40;1.10;;;;;;;24.51;34.57;98204.23;25152;1315;3056630;-67
2022/06/23 10:34:10;;;;;;;6.20;1.00;;;;;;;24.50;35.12;98212.55;25032;1314;3052126;-66
2022/06/23 10:37:05;;;;;;;5.90;0.90;;;;;;;24.55;34.97;98209.94;25006;1314;3071668;-66
2022/06/23 10:39:50;;;;;;;3.80;1.00;;;;;;;24.56;35.41;98210.99;25001;1315;3049746;-66
2022/06/23 10:42:37;;;;;;;5.90;1.60;;;;;;;24.56;35.60;98216.20;25057;1316;3054926;-65
2022/06/23 10:45:28;;;;;;;5.60;2.10;;;;;;;24.65;35.39;98212.17;25114;1316;3052671;-67
2022/06/23 10:48:12;;;;;;;2.60;1.60;;;;;;;24.89;35.05;98209.15;25098;1315;3058625;-69
2022/06/23 10:51:06;;;;;;;5.00;1.40;;;;;;;25.08;34.76;98215.64;25020;1314;3052974;-67
2022/06/23 10:53:50;;;;;;;4.40;1.40;;;;;;;24.94;35.47;98218.25;25136;1314;3054395;-66
2022/06/23 10:56:29;;;;;;;7.00;0.90;;;;;;;25.18;34.67;98221.52;25083;1315;3053704;-71
2022/06/23 10:59:13;;;;;;;10.70;1.00;;;;;;;25.14;34.24;98215.88;25132;1314;3070414;-62
2022/06/23 11:01:57;;;;;;;5.70;1.50;;;;;;;25.18;34.37;98217.99;25105;1314;3050300;-62
2022/06/23 11:04:35;;;;;;;;;;;;;;;25.50;33.57;98212.52;25091;1314;3052804;-64
2022/06/23 11:07:07;;;;;;;4.30;1.60;;;;;;;25.67;33.06;98210.55;25108;1315;3053706;-63
2022/06/23 11:09:43;;;;;;;2.50;1.10;;;;;;;25.82;33.31;98212.48;25051;1314;3029299;-62
2022/06/23 11:12:24;;;;;;;5.00;1.00;;;;;;;26.13;31.99;98216.27;25076;1315;3049857;-61
2022/06/23 11:15:05;;;;;;;3.40;1.20;;;;;;;26.17;32.04;98217.61;25041;1314;3052876;-62
2022/06/23 11:17:38;;;;;;;2.20;0.80;;;;;;;26.15;31.93;98218.27;25049;1314;3052337;-62
2022/06/23 11:20:17;;;;;;;2.30;1.30;;;;;;;26.23;30.71;98219.55;25084;1315;3027214;-62
2022/06/23 11:22:54;;;;;;;4.40;1.80;;;;;;;26.17;30.88;98225.25;25030;1316;3049685;-63
2022/06/23 11:25:45;;;;;;;3.20;1.40;;;;;;;26.26;31.11;98229.81;25084;1319;3054477;-61
2022/06/23 11:28:23;;;;;;;2.40;1.30;;;;;;;26.57;30.85;98223.73;25078;1314;3055296;-62
2022/06/23 11:31:04;;;;;;;4.20;1.20;;;;;;;26.51;30.49;98225.52;25040;1316;3057229;-62
2022/06/23 11:33:46;;;;;;;6.40;0.90;;;;;;;26.55;30.99;98228.14;25104;1315;3051662;-62
2022/06/23 11:36:42;;;;;;;2.30;1.30;;;;;;;26.93;30.62;98228.48;25019;1315;3053471;-62
2022/06/23 11:39:39;;;;;;;2.10;1.60;;;;;;;27.34;30.00;98224.14;25067;1315;3054357;-61
2022/06/23 11:42:19;;;;;;;7.30;1.80;;;;;;;27.53;29.59;98222.98;25025;1316;3074413;-61
2022/06/23 11:44:59;;;;;;;4.30;1.40;;;;;;;27.29;29.96;98224.34;25069;1314;3048981;-62
2022/06/23 11:47:35;;;;;;;2.80;0.90;;;;;;;27.32;29.31;98227.27;25015;1315;3055722;-62
2022/06/23 11:50:29;;;;;;;5.50;1.30;;;;;;;27.43;29.45;98234.42;25112;1314;3052902;-62
2022/06/23 11:53:16;;;;;;;3.60;1.50;;;;;;;27.30;29.65;98233.81;25109;1316;3057444;-64
2022/06/23 11:55:52;;;;;;;3.20;1.10;;;;;;;27.44;29.87;98237.73;25107;1314;3051451;-60
2022/06/23 11:58:43;;;;;;;2.30;1.20;;;;;;;27.58;29.12;98238.81;25036;1316;3055793;-64
2022/06/23 12:01:17;;;;;;;2.50;1.40;;;;;;;27.71;28.82;98239.93;25047;1317;3054074;-63
2022/06/23 12:04:05;;;;;;;3.40;1.40;;;;;;;27.75;29.09;98243.85;24966;1314;3069145;-60
2022/06/23 12:06:49;;;;;;;3.10;1.60;;;;;;;27.56;29.09;98247.44;25064;1315;3053049;-62
2022/06/23 12:09:43;;;;;;;2.20;1.40;;;;;;;27.48;28.91;98248.86;25042;1315;3054035;-62
2022/06/23 12:12:12;;;;;;;3.50;1.80;;;;;;;27.24;29.80;98249.92;25041;1314;3055677;-61
2022/06/23 12:14:44;;;;;;;7.30;2.60;;;;;;;27.13;30.69;98252.83;25073;1316;3026350;-62
2022/06/23 12:17:29;;;;;;;3.70;1.70;;;;;;;26.99;31.39;98251.99;25077;1318;3027002;-63
2022/06/23 12:20:13;;;;;;;3.50;1.40;;;;;;;26.85;31.60;98258.18;25049;1314;3055318;-62
2022/06/23 12:22:52;;;;;;;4.30;1.40;;;;;;;26.69;31.46;98257.68;25032;1312;3058721;-62
2022/06/23 12:25:44;;;;;;;2.60;1.40;;;;;;;26.83;30.54;98262.73;25108;1315;3049967;-62
2022/06/23 12:28:32;;;;;;;8.90;2.60;;;;;;;27.02;30.13;98263.06;25041;1318;3055845;-62
2022/06/23 12:31:29;;;;;;;8.70;3.30;;;;;;;27.19;29.74;98263.27;25111;1315;3051362;-62
2022/06/23 12:34:17;;;;;;;7.80;2.70;;;;;;;27.31;29.81;98267.44;25070;1316;3071637;-63